Terminal Aerodrome Forecast
Issued by NWS Pocatello, ID

Home | Current Version | Previous Version | Text Only | Print | Product List | Glossary On
Versions: 1 2 3 4 5 6 7 8 9 10 11 12
739
FTUS45 KPIH 041720
TAFPIH
TAF
KPIH 041720Z 0418/0518 06007KT P6SM SCT110
     FM041900 19011KT P6SM FEW080 SCT110
     FM050200 16008KT P6SM SKC=

USA.gov is the U.S. government's official web portal to all federal, state and local government web resources and services.